Аэропорт: Уфа. Уфа

ICAO: UWUU

METAR:
2020-06-04 03:30:00
UWUU 040330Z 11004MPS 050V150 9999 BKN040 17/11 Q1016 R14R/0///60 NOSIG
METAR:
2020-06-04 01:43:00
TAF UWUU 040143Z 0403/0503 03003G08MPS 9999 BKN040 TX25/0410Z TN15/0403Z TEMPO 0403/0405 08003G08MPS BECMG 0405/0406 11006G11MPS